Terminal Aerodrome Forecast
Issued by NWS

Home | Current Version | Previous Version | Text Only | Print | Product List | Glossary On
Versions: 1 2 3 4 5 6 7 8 9 10 11 12 13 14 15 16
946
FTUS41 KBGM 180540
TAFITH
TAF
KITH 180540Z 1806/1906 17005KT P6SM OVC008
      TEMPO 1806/1809 4SM -DZ BR OVC005
     FM180900 19004KT 3SM -DZ BR OVC005
     FM181200 26004KT 4SM BR OVC005
     FM181600 31005KT P6SM OVC008=

USA.gov is the U.S. government's official web portal to all federal, state and local government web resources and services.